createdAt,value
2023-10-26T00:01:23.142Z,5.00
2023-10-26T00:06:26.067Z,4.80
2023-10-26T00:11:31.659Z,5.20
2023-10-26T00:16:34.554Z,6.90
2023-10-26T00:21:37.785Z,5.30
2023-10-26T00:26:41.978Z,8.50
2023-10-26T00:31:44.861Z,9.20
2023-10-26T00:36:48.422Z,8.90
2023-10-26T00:41:52.456Z,6.90
2023-10-26T00:46:55.895Z,4.70
2023-10-26T00:52:03.712Z,5.00
2023-10-26T00:57:06.653Z,6.80
2023-10-26T01:02:09.621Z,5.20
2023-10-26T01:07:13.507Z,5.60
2023-10-26T01:12:18.009Z,6.10
2023-10-26T01:17:20.998Z,5.60
2023-10-26T01:22:31.007Z,5.20
2023-10-26T01:27:33.817Z,6.80
2023-10-26T01:32:36.661Z,5.50
2023-10-26T01:37:40.629Z,5.80
2023-10-26T01:42:43.509Z,6.40
2023-10-26T01:47:46.335Z,8.30
2023-10-26T01:52:49.192Z,6.30
2023-10-26T01:57:52.492Z,5.40
2023-10-26T02:02:57.450Z,6.10
2023-10-26T02:08:00.451Z,9.10
2023-10-26T02:13:05.754Z,5.60
2023-10-26T02:18:08.641Z,5.70
2023-10-26T02:23:11.533Z,6.30
2023-10-26T02:28:20.756Z,5.30
2023-10-26T02:33:23.633Z,4.70
2023-10-26T02:38:26.443Z,7.30
2023-10-26T02:43:29.206Z,5.90
2023-10-26T02:48:32.346Z,4.40
2023-10-26T02:53:35.249Z,8.40
2023-10-26T02:58:38.795Z,8.20
2023-10-26T03:03:41.736Z,5.90
2023-10-26T03:08:44.665Z,4.80
2023-10-26T03:13:47.529Z,4.80
2023-10-26T03:18:50.456Z,4.90
2023-10-26T03:23:56.248Z,5.30
2023-10-26T03:28:59.218Z,4.10
2023-10-26T03:34:02.024Z,5.90
2023-10-26T03:39:05.412Z,8.10
2023-10-26T03:44:09.559Z,5.90
2023-10-26T03:49:12.695Z,6.20
2023-10-26T03:54:15.534Z,5.40
2023-10-26T03:59:18.385Z,6.20
2023-10-26T04:04:21.236Z,6.00
2023-10-26T04:09:24.256Z,6.20
2023-10-26T04:14:30.353Z,5.90
2023-10-26T04:19:35.145Z,6.20
2023-10-26T04:24:38.641Z,7.40
2023-10-26T04:29:41.514Z,7.40
2023-10-26T04:34:47.514Z,7.70
2023-10-26T04:39:50.733Z,8.70
2023-10-26T04:44:53.991Z,7.00
2023-10-26T04:49:56.918Z,11.00
2023-10-26T04:54:59.757Z,9.60
2023-10-26T05:00:03.685Z,12.00
2023-10-26T05:05:11.417Z,8.10
2023-10-26T05:10:14.331Z,7.80
2023-10-26T05:15:17.347Z,6.90
2023-10-26T05:20:20.826Z,8.40
2023-10-26T05:25:23.617Z,6.30
2023-10-26T05:30:26.851Z,7.70
2023-10-26T05:35:29.791Z,8.60
2023-10-26T05:40:32.678Z,8.30
2023-10-26T05:45:41.325Z,9.70
2023-10-26T05:50:45.773Z,8.90
2023-10-26T05:55:59.616Z,7.60
2023-10-26T06:01:07.250Z,6.90
2023-10-26T06:06:11.168Z,6.60
2023-10-26T06:11:14.454Z,7.50
2023-10-26T06:16:17.492Z,8.30
2023-10-26T06:21:21.145Z,7.20
2023-10-26T06:26:26.847Z,8.80
2023-10-26T06:31:29.799Z,7.10
2023-10-26T06:36:32.844Z,6.90
2023-10-26T06:41:35.786Z,7.60
2023-10-26T06:46:38.756Z,6.70
2023-10-26T06:51:41.894Z,6.70
2023-10-26T06:56:45.541Z,6.30
2023-10-26T07:02:08.704Z,8.50
2023-10-26T07:07:11.200Z,7.10
2023-10-26T07:12:14.106Z,7.20
2023-10-26T07:17:17.003Z,10.30
2023-10-26T07:22:20.057Z,9.80
2023-10-26T07:27:24.722Z,10.30
2023-10-26T07:32:31.972Z,7.50
2023-10-26T07:37:35.169Z,7.00
2023-10-26T07:42:38.920Z,7.00
2023-10-26T07:47:42.001Z,6.50
2023-10-26T07:52:51.098Z,8.70
2023-10-26T07:57:55.287Z,8.20
2023-10-26T08:03:00.345Z,9.70
2023-10-26T08:08:04.248Z,6.70
2023-10-26T08:13:07.392Z,7.70
2023-10-26T08:18:10.475Z,8.50
2023-10-26T08:23:13.471Z,7.90
2023-10-26T08:28:23.131Z,8.60
2023-10-26T08:33:31.717Z,8.40
2023-10-26T08:38:35.372Z,6.20
2023-10-26T08:43:39.185Z,7.10
2023-10-26T08:48:45.618Z,7.60
2023-10-26T08:53:48.835Z,10.30
2023-10-26T08:58:58.628Z,7.50
2023-10-26T09:04:21.952Z,7.50
2023-10-26T09:09:25.319Z,7.20
2023-10-26T09:14:28.269Z,5.70
2023-10-26T09:19:39.853Z,7.00
2023-10-26T09:24:43.019Z,9.20
2023-10-26T09:29:48.406Z,7.30
2023-10-26T09:34:51.393Z,9.90
2023-10-26T09:40:12.138Z,6.90
2023-10-26T09:45:22.436Z,9.80
2023-10-26T09:50:25.599Z,6.80
2023-10-26T09:55:31.599Z,6.10
2023-10-26T10:00:36.062Z,4.70
2023-10-26T10:05:41.560Z,5.80
2023-10-26T10:11:17.166Z,5.70
2023-10-26T10:16:41.533Z,7.50
2023-10-26T10:21:45.318Z,9.20
2023-10-26T10:27:11.524Z,6.50
2023-10-26T10:32:43.920Z,5.60
2023-10-26T10:38:13.720Z,6.40
2023-10-26T10:43:16.809Z,6.30
2023-10-26T10:48:19.627Z,5.00
2023-10-26T10:53:25.521Z,6.00
2023-10-26T10:58:37.937Z,6.80
2023-10-26T11:03:41.006Z,8.30
2023-10-26T11:08:45.183Z,8.60
2023-10-26T11:13:48.500Z,8.50
2023-10-26T11:18:52.056Z,9.20
2023-10-26T11:23:58.023Z,6.40
2023-10-26T11:29:05.560Z,8.00
2023-10-26T11:34:10.840Z,7.00
2023-10-26T11:39:13.743Z,9.30
2023-10-26T11:44:38.868Z,6.30
2023-10-26T11:49:43.008Z,6.60
2023-10-26T11:54:53.892Z,5.90
2023-10-26T11:59:58.761Z,6.40
2023-10-26T12:05:04.256Z,5.00
2023-10-26T12:10:07.537Z,5.70
2023-10-26T12:15:13.112Z,6.90
2023-10-26T12:20:23.848Z,6.10
2023-10-26T12:25:26.681Z,6.80
2023-10-26T12:30:29.613Z,6.30
2023-10-26T12:35:33.720Z,5.00
2023-10-26T12:40:36.786Z,4.70
2023-10-26T12:45:40.649Z,7.00
2023-10-26T12:50:43.623Z,5.90
2023-10-26T12:55:46.548Z,4.70
2023-10-26T13:00:49.735Z,6.50
2023-10-26T13:05:53.151Z,5.90
2023-10-26T13:10:56.519Z,6.90
2023-10-26T13:15:59.485Z,6.00
2023-10-26T13:21:03.411Z,6.30
2023-10-26T13:26:06.725Z,7.40
2023-10-26T13:31:09.739Z,6.20
2023-10-26T13:36:13.179Z,6.30
2023-10-26T13:41:17.391Z,6.90
2023-10-26T13:46:20.318Z,6.20
2023-10-26T13:51:23.179Z,6.70
2023-10-26T13:56:26.534Z,8.20
2023-10-26T14:01:29.501Z,7.20
2023-10-26T14:06:32.534Z,7.50
2023-10-26T14:11:35.392Z,7.10
2023-10-26T14:16:38.332Z,7.60
2023-10-26T14:21:41.140Z,6.20
2023-10-26T14:26:46.370Z,7.00
2023-10-26T14:31:49.305Z,7.50
2023-10-26T14:36:52.800Z,8.50
2023-10-26T14:41:55.591Z,10.00
2023-10-26T14:46:58.988Z,10.70
2023-10-26T14:52:02.787Z,8.80
2023-10-26T14:57:05.858Z,7.90
2023-10-26T15:02:08.667Z,7.70
2023-10-26T15:07:11.594Z,8.70
2023-10-26T15:12:15.028Z,8.80
2023-10-26T15:17:20.393Z,11.40
2023-10-26T15:22:23.182Z,11.60
2023-10-26T15:27:25.992Z,10.40
2023-10-26T15:32:30.963Z,9.80
2023-10-26T15:37:34.558Z,11.40
2023-10-26T15:42:37.417Z,11.80
2023-10-26T15:47:40.637Z,11.50
2023-10-26T15:52:43.952Z,12.60
2023-10-26T15:57:46.875Z,14.90
2023-10-26T16:02:49.674Z,13.30
2023-10-26T16:07:52.540Z,17.30
2023-10-26T16:12:57.297Z,13.80
2023-10-26T16:18:02.125Z,13.60
2023-10-26T16:23:04.971Z,17.10
2023-10-26T16:28:12.179Z,12.90
2023-10-26T16:33:15.165Z,12.60
2023-10-26T16:38:17.914Z,12.30
2023-10-26T16:43:21.285Z,11.50
2023-10-26T16:48:25.616Z,16.90
2023-10-26T16:53:32.025Z,13.80
2023-10-26T16:58:35.773Z,13.90
2023-10-26T17:03:39.520Z,13.70
2023-10-26T17:08:42.451Z,16.00
2023-10-26T17:13:45.384Z,13.20
2023-10-26T17:18:48.195Z,19.50
2023-10-26T17:23:51.076Z,15.70
2023-10-26T17:28:57.723Z,15.70
2023-10-26T17:39:04.090Z,12.60
2023-10-26T17:44:08.512Z,16.00
2023-10-26T17:49:11.485Z,15.80
2023-10-26T17:54:16.446Z,17.40
2023-10-26T17:59:20.461Z,14.10
2023-10-26T18:04:23.337Z,12.70
2023-10-26T18:09:30.516Z,10.30
2023-10-26T18:14:33.457Z,14.10
2023-10-26T18:19:36.326Z,10.30
2023-10-26T18:24:39.184Z,11.20
2023-10-26T18:29:43.110Z,9.50
2023-10-26T18:34:45.956Z,11.00
2023-10-26T18:39:49.654Z,10.20
2023-10-26T18:44:52.858Z,12.20
2023-10-26T18:49:55.683Z,12.20
2023-10-26T18:54:58.696Z,9.70
2023-10-26T19:00:02.400Z,10.60
2023-10-26T19:05:09.699Z,12.90
2023-10-26T19:10:13.705Z,12.10
2023-10-26T19:15:17.865Z,9.30
2023-10-26T19:20:21.943Z,13.40
2023-10-26T19:25:27.364Z,14.00
2023-10-26T19:30:30.929Z,13.00
2023-10-26T19:35:34.153Z,13.90
2023-10-26T19:40:37.029Z,12.30
2023-10-26T19:45:42.732Z,9.30
2023-10-26T19:50:45.619Z,11.10
2023-10-26T19:55:49.571Z,15.50
2023-10-26T20:00:53.586Z,11.40
2023-10-26T20:05:56.539Z,14.20
2023-10-26T20:10:59.380Z,13.40
2023-10-26T20:16:02.268Z,14.40
2023-10-26T20:21:05.448Z,15.50
2023-10-26T20:26:08.617Z,13.60
2023-10-26T20:31:11.611Z,14.90
2023-10-26T20:36:16.345Z,15.40
2023-10-26T20:41:20.306Z,15.60
2023-10-26T20:46:23.278Z,17.70
2023-10-26T20:51:27.298Z,18.20
2023-10-26T20:56:30.067Z,13.90
2023-10-26T21:01:32.871Z,13.60
2023-10-26T21:06:35.676Z,16.80
2023-10-26T21:11:38.429Z,12.90
2023-10-26T21:16:43.377Z,14.50
2023-10-26T21:21:46.311Z,15.60
2023-10-26T21:26:49.777Z,15.00
2023-10-26T21:31:52.626Z,14.90
2023-10-26T21:36:55.489Z,17.80
2023-10-26T21:41:58.404Z,17.40
2023-10-26T21:47:01.260Z,22.10
2023-10-26T21:52:05.516Z,19.20
2023-10-26T21:57:08.275Z,16.30
2023-10-26T22:02:11.176Z,13.10
2023-10-26T22:07:13.975Z,11.50
2023-10-26T22:12:16.721Z,12.00
2023-10-26T22:17:19.601Z,11.60
2023-10-26T22:22:22.609Z,11.40
2023-10-26T22:27:26.108Z,13.50
2023-10-26T22:32:32.359Z,13.50
2023-10-26T22:37:36.424Z,10.80
2023-10-26T22:42:39.577Z,13.50
2023-10-26T22:47:44.433Z,12.70
2023-10-26T22:52:47.308Z,12.70
2023-10-26T22:57:50.360Z,12.90
2023-10-26T23:02:53.414Z,12.50
2023-10-26T23:07:56.471Z,11.40
2023-10-26T23:12:59.284Z,12.50
2023-10-26T23:18:02.177Z,11.80
2023-10-26T23:23:05.006Z,10.80
2023-10-26T23:28:07.818Z,10.90
2023-10-26T23:33:10.642Z,10.20
2023-10-26T23:38:14.582Z,10.70
2023-10-26T23:43:17.535Z,9.40
2023-10-26T23:48:20.454Z,9.30
2023-10-26T23:53:23.573Z,9.60
2023-10-26T23:58:26.434Z,8.50
